Tuthill, South Dakota
Current Conditions -  °F | °C
As of 1:52 PM on Wednesday 26 Nov 2014 (Local Time) from KVTN Reporting Station
Clear Clear  
Wind Chill: 20°   Ceiling: Unl
Heat Index: 28°   Visibility: 10mi
Dew Point: 17°   Wind: 8mph
Humidity: 63%   Direction: 340°NNW
Pressure: 30.29"   Gusts: NA
Location:  43.16°N, 101.5°W
Report Text: KVTN 262052Z AUTO 34007KT 10SM CLR M02/M08 A3029 RMK AO2 SLP286 T10221083 55004
Loading
Personal Weather Stations






























Interactive Weather Map New forecast layout! Learn more

10-Day Weather Forecast

Advertisements
Track Severe Weather on mobile